Time;durP1;ratioP1;P1;durP2;ratioP2;P2;SDS_P1;SDS_P2;PMS_P1;PMS_P2;Temp;Humidity;BMP_temperature;BMP_pressure;BME280_temperature;BME280_humidity;BME280_pressure;Samples;Min_cycle;Max_cycle;Signal;HPM_P1;HPM_P2
2023/06/06 00:02:23;;;;;;;3.65;3.35;;;26.00;42.70;;;;;;5046085;28;45321;-72
2023/06/06 00:04:50;;;;;;;4.22;3.47;;;26.00;42.70;;;;;;5046852;28;45329;-72
2023/06/06 00:07:17;;;;;;;3.72;3.33;;;26.00;42.70;;;;;;5046061;28;45457;-71
2023/06/06 00:09:43;;;;;;;3.70;3.40;;;26.00;42.60;;;;;;5046129;28;45354;-71
2023/06/06 00:12:12;;;;;;;3.38;3.03;;;25.90;42.60;;;;;;5046308;28;45369;-72
2023/06/06 00:14:39;;;;;;;4.20;3.35;;;25.90;42.50;;;;;;5046530;28;45349;-71
2023/06/06 00:17:06;;;;;;;3.55;3.25;;;25.90;42.50;;;;;;5045986;28;45289;-71
2023/06/06 00:19:35;;;;;;;4.07;3.20;;;25.90;42.40;;;;;;5047170;28;45327;-71
2023/06/06 00:22:02;;;;;;;3.75;3.35;;;25.90;42.40;;;;;;5049925;28;45395;-72
2023/06/06 00:24:29;;;;;;;3.55;3.20;;;25.90;42.30;;;;;;5050019;28;45344;-72
2023/06/06 00:26:56;;;;;;;3.95;3.60;;;25.80;42.30;;;;;;5049297;28;45316;-71
2023/06/06 00:29:24;;;;;;;3.63;3.30;;;25.80;42.30;;;;;;5049603;28;45506;-71
2023/06/06 00:31:51;;;;;;;3.63;2.95;;;25.80;42.30;;;;;;5049488;28;45430;-71
2023/06/06 00:34:18;;;;;;;3.67;3.38;;;25.70;42.20;;;;;;5048953;28;45401;-71
2023/06/06 00:36:45;;;;;;;4.55;3.45;;;25.70;42.20;;;;;;5049518;28;46445;-71
2023/06/06 00:39:12;;;;;;;3.97;3.67;;;25.60;42.20;;;;;;5049386;28;45262;-71
2023/06/06 00:41:39;;;;;;;3.63;3.33;;;25.60;42.20;;;;;;5049976;28;45443;-71
2023/06/06 00:44:05;;;;;;;3.95;3.40;;;25.60;42.20;;;;;;5049713;28;45379;-71
2023/06/06 00:46:34;;;;;;;4.40;3.80;;;25.60;42.10;;;;;;5049079;28;45620;-71
2023/06/06 00:49:00;;;;;;;4.63;3.50;;;25.60;42.10;;;;;;5049242;28;45309;-71
2023/06/06 00:51:27;;;;;;;3.55;3.15;;;25.50;42.00;;;;;;5049315;28;45316;-70
2023/06/06 00:53:54;;;;;;;3.72;3.20;;;25.50;42.10;;;;;;5049499;28;45331;-71
2023/06/06 00:56:22;;;;;;;3.50;3.20;;;25.50;42.10;;;;;;5048846;28;45369;-72
2023/06/06 00:58:48;;;;;;;3.45;2.90;;;25.40;42.10;;;;;;5049112;28;45380;-71
2023/06/06 01:01:16;;;;;;;3.13;2.92;;;25.50;42.10;;;;;;5049228;28;45171;-71
2023/06/06 01:03:44;;;;;;;3.78;3.47;;;25.40;42.10;;;;;;5048938;28;45538;-71
2023/06/06 01:06:12;;;;;;;3.40;3.10;;;25.40;42.10;;;;;;5048736;28;47349;-71
2023/06/06 01:08:39;;;;;;;4.53;3.38;;;25.30;42.00;;;;;;5048797;28;45317;-72
2023/06/06 01:11:12;;;;;;;3.78;3.40;;;25.30;42.00;;;;;;5049049;28;45381;-71
2023/06/06 01:13:42;;;;;;;4.30;3.47;;;25.30;42.00;;;;;;5049027;28;45222;-71
2023/06/06 01:16:12;;;;;;;3.47;3.17;;;25.30;42.00;;;;;;5048572;28;46390;-71
2023/06/06 01:18:40;;;;;;;3.30;3.00;;;25.30;42.00;;;;;;5048893;28;45333;-71
2023/06/06 01:21:08;;;;;;;3.72;3.30;;;25.20;42.00;;;;;;5048704;28;45262;-71
2023/06/06 01:23:36;;;;;;;2.90;2.70;;;25.20;42.00;;;;;;5048244;28;45256;-71
2023/06/06 01:26:05;;;;;;;3.00;2.75;;;25.20;42.00;;;;;;5048502;28;45512;-71
2023/06/06 01:28:32;;;;;;;3.40;3.10;;;25.10;41.90;;;;;;5048516;28;45337;-71
2023/06/06 01:30:59;;;;;;;3.10;2.80;;;25.10;41.90;;;;;;5047852;28;45265;-71
2023/06/06 01:33:33;;;;;;;3.10;2.80;;;25.10;41.90;;;;;;5048687;28;45459;-71
2023/06/06 01:36:04;;;;;;;3.38;3.08;;;25.10;41.90;;;;;;5048475;28;45333;-71
2023/06/06 01:38:32;;;;;;;3.13;2.90;;;25.00;41.90;;;;;;5048735;28;45348;-71
2023/06/06 01:41:02;;;;;;;3.42;3.13;;;25.00;41.90;;;;;;5048560;28;45440;-71
2023/06/06 01:43:29;;;;;;;3.42;3.13;;;25.00;41.90;;;;;;5048655;28;45475;-71
2023/06/06 01:45:56;;;;;;;3.70;3.20;;;25.00;41.80;;;;;;5048093;28;45409;-71
2023/06/06 01:48:22;;;;;;;3.70;2.90;;;25.00;41.80;;;;;;5048301;28;45323;-71
2023/06/06 01:50:49;;;;;;;3.08;2.80;;;24.90;41.80;;;;;;5048523;28;45294;-71
2023/06/06 01:53:16;;;;;;;3.60;3.30;;;24.90;41.90;;;;;;5048421;28;45310;-71
2023/06/06 01:55:43;;;;;;;3.40;3.10;;;24.80;41.80;;;;;;5048035;28;46738;-71
2023/06/06 01:58:11;;;;;;;3.05;2.85;;;24.90;41.80;;;;;;5048168;28;45345;-71
2023/06/06 02:00:38;;;;;;;3.03;2.83;;;24.80;41.80;;;;;;5048191;28;45295;-71
2023/06/06 02:03:05;;;;;;;3.40;3.10;;;24.80;41.80;;;;;;5048213;28;45250;-71
2023/06/06 02:05:32;;;;;;;3.38;2.80;;;24.70;41.70;;;;;;5047969;28;46397;-71
2023/06/06 02:07:59;;;;;;;3.10;2.78;;;24.70;41.70;;;;;;5047932;28;45381;-71
2023/06/06 02:10:25;;;;;;;3.50;2.90;;;24.70;41.70;;;;;;5048036;28;45416;-71
2023/06/06 02:12:52;;;;;;;3.20;2.90;;;24.70;41.70;;;;;;5047391;28;45416;-71
2023/06/06 02:15:21;;;;;;;2.90;2.70;;;24.70;41.70;;;;;;5047722;28;46343;-71
2023/06/06 02:17:48;;;;;;;2.70;2.50;;;24.60;42.30;;;;;;5047866;28;45372;-71
2023/06/06 02:20:15;;;;;;;2.92;2.70;;;24.60;41.70;;;;;;5048050;28;45359;-71
2023/06/06 02:22:42;;;;;;;3.67;3.38;;;24.60;41.70;;;;;;5048085;28;45382;-71
2023/06/06 02:25:11;;;;;;;3.90;2.75;;;24.60;41.70;;;;;;5047612;28;46382;-71
2023/06/06 02:27:38;;;;;;;2.72;2.53;;;24.50;41.60;;;;;;5047631;28;45396;-71
2023/06/06 02:30:07;;;;;;;4.10;3.08;;;24.50;41.60;;;;;;5047994;28;45369;-71
2023/06/06 02:32:35;;;;;;;3.00;2.78;;;24.50;41.60;;;;;;5047568;28;45281;-71
2023/06/06 02:35:03;;;;;;;3.00;2.70;;;24.50;41.70;;;;;;5047627;28;45415;-71
2023/06/06 02:37:29;;;;;;;3.05;2.78;;;24.50;41.60;;;;;;5047340;28;45380;-71
2023/06/06 02:39:56;;;;;;;3.13;2.90;;;24.50;41.60;;;;;;5047554;28;45308;-71
2023/06/06 02:42:23;;;;;;;3.05;2.75;;;24.50;41.60;;;;;;5047697;28;45322;-71
2023/06/06 02:44:51;;;;;;;3.25;2.65;;;24.40;41.50;;;;;;5047079;28;46405;-71
2023/06/06 02:47:18;;;;;;;2.90;2.70;;;24.40;41.50;;;;;;5047413;28;45359;-71
2023/06/06 02:49:46;;;;;;;3.05;2.85;;;24.40;41.60;;;;;;5047660;28;45353;-71
2023/06/06 02:52:13;;;;;;;3.17;2.78;;;24.30;41.50;;;;;;5047763;28;45535;-72
2023/06/06 02:54:40;;;;;;;2.95;2.72;;;24.30;42.10;;;;;;5047159;28;47049;-72
2023/06/06 02:57:07;;;;;;;2.92;2.58;;;24.30;41.60;;;;;;5047171;28;45395;-71
2023/06/06 02:59:35;;;;;;;2.60;2.40;;;24.30;41.50;;;;;;5046535;28;45498;-71
2023/06/06 03:02:03;;;;;;;2.90;2.70;;;24.30;41.50;;;;;;5046497;28;45459;-71
2023/06/06 03:04:30;;;;;;;2.63;2.42;;;24.30;41.50;;;;;;5046255;28;46992;-71
2023/06/06 03:06:58;;;;;;;2.88;2.67;;;24.20;41.50;;;;;;5046098;28;45440;-71
2023/06/06 03:09:26;;;;;;;2.83;2.63;;;24.20;41.50;;;;;;5046318;28;45294;-71
2023/06/06 03:11:53;;;;;;;2.97;2.67;;;24.20;41.40;;;;;;5046490;28;45385;-71
2023/06/06 03:14:20;;;;;;;2.83;2.53;;;24.20;41.50;;;;;;5045946;28;46406;-71
2023/06/06 03:16:51;;;;;;;2.85;2.65;;;24.20;41.50;;;;;;5046085;28;45402;-71
2023/06/06 03:19:18;;;;;;;3.53;2.83;;;24.20;41.50;;;;;;5046191;28;45251;-71
2023/06/06 03:21:44;;;;;;;3.45;2.70;;;24.10;41.50;;;;;;5046287;28;45304;-71
2023/06/06 03:24:13;;;;;;;2.65;2.45;;;24.10;41.40;;;;;;5045832;28;47311;-71
2023/06/06 03:26:40;;;;;;;2.75;2.40;;;24.10;41.40;;;;;;5045730;28;46120;-71
2023/06/06 03:29:07;;;;;;;3.00;2.70;;;24.10;41.40;;;;;;5046055;28;45262;-71
2023/06/06 03:31:34;;;;;;;2.78;2.58;;;24.10;41.50;;;;;;5046259;28;45506;-71
2023/06/06 03:34:01;;;;;;;3.10;2.47;;;24.10;41.40;;;;;;5045732;28;45416;-71
2023/06/06 03:36:32;;;;;;;2.97;2.50;;;24.10;41.40;;;;;;5045682;28;45375;-71
2023/06/06 03:38:59;;;;;;;2.95;2.30;;;24.10;41.40;;;;;;5045833;28;45309;-71
2023/06/06 03:41:27;;;;;;;2.60;2.40;;;24.00;41.30;;;;;;5046212;28;45352;-71
2023/06/06 03:43:54;;;;;;;2.97;2.65;;;24.00;41.30;;;;;;5045568;28;45343;-71
2023/06/06 03:46:21;;;;;;;3.10;2.80;;;24.00;41.30;;;;;;5045542;28;45403;-71
2023/06/06 03:48:47;;;;;;;3.00;2.70;;;24.00;41.30;;;;;;5045774;28;45408;-71
2023/06/06 03:51:14;;;;;;;2.55;2.35;;;23.90;41.30;;;;;;5046006;28;45236;-71
2023/06/06 03:53:42;;;;;;;2.92;2.60;;;23.90;41.40;;;;;;5044738;28;46420;-71
2023/06/06 03:56:09;;;;;;;3.45;2.70;;;23.80;41.40;;;;;;5045570;28;45395;-71
2023/06/06 03:58:38;;;;;;;3.17;2.20;;;23.80;41.50;;;;;;5045700;28;45392;-71
2023/06/06 04:01:05;;;;;;;2.50;2.30;;;23.80;41.40;;;;;;5045732;28;45356;-71
2023/06/06 04:03:36;;;;;;;2.80;2.60;;;23.80;41.50;;;;;;5045297;28;45470;-71
2023/06/06 04:06:04;;;;;;;3.38;2.70;;;23.80;41.50;;;;;;5045370;28;45266;-71
2023/06/06 04:08:31;;;;;;;3.78;2.80;;;23.80;41.50;;;;;;5045716;28;45231;-71
2023/06/06 04:10:58;;;;;;;2.70;2.50;;;23.80;41.50;;;;;;5045877;28;45370;-72
2023/06/06 04:13:25;;;;;;;3.22;2.50;;;23.70;41.50;;;;;;5045328;28;47280;-71
2023/06/06 04:15:53;;;;;;;3.47;2.80;;;23.70;41.50;;;;;;5045563;28;45481;-71
2023/06/06 04:18:20;;;;;;;3.97;2.78;;;23.70;41.50;;;;;;5045374;28;45258;-71
2023/06/06 04:20:47;;;;;;;3.22;2.25;;;23.70;41.50;;;;;;5045497;28;45344;-71
2023/06/06 04:23:14;;;;;;;2.53;2.33;;;23.70;41.50;;;;;;5045163;28;45382;-71
2023/06/06 04:25:41;;;;;;;3.08;2.78;;;23.70;41.50;;;;;;5045121;28;45498;-71
2023/06/06 04:28:08;;;;;;;3.88;2.97;;;23.70;41.40;;;;;;5045202;28;45280;-72
2023/06/06 04:30:36;;;;;;;4.35;2.42;;;23.70;41.40;;;;;;5045316;28;45474;-71
2023/06/06 04:33:05;;;;;;;4.82;2.85;;;23.70;41.40;;;;;;5044833;28;45458;-71
2023/06/06 04:35:32;;;;;;;3.55;2.47;;;23.70;41.40;;;;;;5045094;28;45328;-72
2023/06/06 04:37:58;;;;;;;3.25;2.47;;;23.70;41.40;;;;;;5045073;28;45282;-71
2023/06/06 04:40:32;;;;;;;2.50;2.30;;;23.70;41.30;;;;;;5045211;28;45392;-71
2023/06/06 04:43:01;;;;;;;2.90;2.47;;;23.70;41.30;;;;;;5044924;28;45330;-71
2023/06/06 04:45:27;;;;;;;2.92;2.63;;;23.80;41.30;;;;;;5044921;28;45455;-71
2023/06/06 04:47:55;;;;;;;3.60;2.53;;;23.80;41.30;;;;;;5044958;28;45306;-71
2023/06/06 04:50:24;;;;;;;3.28;2.67;;;23.80;41.20;;;;;;5045145;28;45400;-71
2023/06/06 04:52:50;;;;;;;2.70;2.50;;;23.80;41.20;;;;;;5044651;28;46976;-72
2023/06/06 04:55:18;;;;;;;2.88;2.58;;;23.80;41.20;;;;;;5044724;28;45401;-71
2023/06/06 04:57:45;;;;;;;5.43;2.90;;;23.80;41.20;;;;;;5044913;28;45391;-71
2023/06/06 05:00:13;;;;;;;3.85;2.55;;;23.80;41.10;;;;;;5045036;28;45550;-71
2023/06/06 05:02:40;;;;;;;2.70;2.50;;;23.80;41.10;;;;;;5044422;28;46388;-71
2023/06/06 05:05:09;;;;;;;3.08;2.60;;;23.80;41.10;;;;;;5045237;28;45292;-71
2023/06/06 05:07:38;;;;;;;2.60;2.40;;;23.80;41.20;;;;;;5048139;28;45375;-71
2023/06/06 05:10:06;;;;;;;3.38;2.38;;;23.80;41.20;;;;;;5048368;28;45199;-71
2023/06/06 05:12:32;;;;;;;2.70;2.50;;;23.80;41.20;;;;;;5048112;28;45529;-71
2023/06/06 05:14:59;;;;;;;3.03;2.47;;;23.80;41.20;;;;;;5048414;28;45333;-72
2023/06/06 05:17:27;;;;;;;3.05;2.40;;;23.70;41.20;;;;;;5048016;28;45379;-71
2023/06/06 05:19:55;;;;;;;3.53;2.70;;;23.80;41.20;;;;;;5048443;28;45277;-71
2023/06/06 05:22:22;;;;;;;2.58;2.15;;;23.70;41.20;;;;;;5047837;28;45491;-71
2023/06/06 05:24:50;;;;;;;2.65;2.45;;;23.70;41.20;;;;;;5047850;28;45494;-71
2023/06/06 05:27:17;;;;;;;2.42;2.22;;;23.70;41.10;;;;;;5047920;28;45372;-71
2023/06/06 05:29:43;;;;;;;4.18;2.00;;;23.70;41.20;;;;;;5047953;28;45235;-72
2023/06/06 05:32:13;;;;;;;4.50;2.55;;;23.70;41.20;;;;;;5047804;28;47686;-71
2023/06/06 05:34:40;;;;;;;2.92;2.58;;;23.70;41.20;;;;;;5047522;28;45399;-71
2023/06/06 05:37:07;;;;;;;3.45;2.28;;;23.70;41.20;;;;;;5047809;28;45366;-71
2023/06/06 05:39:34;;;;;;;4.82;2.25;;;23.70;41.20;;;;;;5048062;28;45611;-71
2023/06/06 05:42:02;;;;;;;5.85;2.53;;;23.70;41.20;;;;;;5047517;28;45320;-71
2023/06/06 05:44:29;;;;;;;3.63;2.30;;;23.70;41.20;;;;;;5047508;28;45380;-72
2023/06/06 05:46:55;;;;;;;2.85;2.40;;;23.70;41.20;;;;;;5047442;28;45391;-71
2023/06/06 05:49:23;;;;;;;2.97;2.67;;;23.70;41.20;;;;;;5047700;28;45383;-71
2023/06/06 05:51:49;;;;;;;2.42;2.22;;;23.70;41.20;;;;;;5047297;28;47519;-71
2023/06/06 05:54:16;;;;;;;4.15;2.60;;;23.70;41.20;;;;;;5047351;28;45305;-71
2023/06/06 05:56:43;;;;;;;3.60;2.45;;;23.70;41.20;;;;;;5047355;28;45265;-71
2023/06/06 05:59:11;;;;;;;2.85;2.50;;;23.70;41.20;;;;;;5047647;28;45292;-71
2023/06/06 06:01:39;;;;;;;3.45;2.53;;;23.70;41.20;;;;;;5047370;28;45361;-71
2023/06/06 06:04:07;;;;;;;2.55;2.35;;;23.70;41.10;;;;;;5047015;28;45257;-71
2023/06/06 06:06:35;;;;;;;3.05;2.72;;;23.70;41.20;;;;;;5047223;28;45455;-71
2023/06/06 06:09:03;;;;;;;2.70;2.50;;;23.70;41.20;;;;;;5047577;28;45290;-71
2023/06/06 06:11:30;;;;;;;2.85;2.50;;;23.70;41.10;;;;;;5047017;28;47571;-71
2023/06/06 06:13:57;;;;;;;2.78;2.55;;;23.70;41.10;;;;;;5047112;28;45398;-71
2023/06/06 06:16:25;;;;;;;4.32;2.65;;;23.70;41.10;;;;;;5047107;28;45301;-71
2023/06/06 06:18:52;;;;;;;2.72;2.53;;;23.70;41.10;;;;;;5044286;28;45342;-71
2023/06/06 06:21:21;;;;;;;4.68;2.47;;;23.70;41.10;;;;;;5046938;28;45408;-72
2023/06/06 06:23:49;;;;;;;2.30;2.10;;;23.80;41.10;;;;;;5046902;28;45429;-71
2023/06/06 06:26:15;;;;;;;3.75;2.40;;;23.80;41.20;;;;;;5049285;28;45354;-73
2023/06/06 06:28:42;;;;;;;3.53;2.78;;;23.80;41.10;;;;;;5055876;28;45377;-71
2023/06/06 06:31:09;;;;;;;2.50;2.30;;;23.80;41.10;;;;;;5046808;28;46717;-71
2023/06/06 06:33:37;;;;;;;2.72;2.50;;;23.80;41.10;;;;;;5046666;28;45275;-71
2023/06/06 06:36:05;;;;;;;3.20;2.80;;;23.80;41.10;;;;;;5047036;28;44824;-72
2023/06/06 06:38:32;;;;;;;3.85;2.22;;;23.80;41.10;;;;;;5046905;28;45452;-72
2023/06/06 06:40:59;;;;;;;3.60;2.47;;;23.80;41.10;;;;;;5046540;28;45271;-72
2023/06/06 06:43:25;;;;;;;3.05;2.20;;;23.80;41.10;;;;;;5046668;28;45382;-72
2023/06/06 06:45:52;;;;;;;4.22;2.40;;;23.90;41.20;;;;;;5046835;28;45309;-72
2023/06/06 06:48:19;;;;;;;3.38;2.58;;;23.90;41.10;;;;;;5046919;28;45450;-72
2023/06/06 06:50:47;;;;;;;6.70;2.90;;;23.90;41.10;;;;;;5046967;28;45366;-72
2023/06/06 06:53:16;;;;;;;3.22;2.55;;;23.90;41.20;;;;;;5046457;28;45270;-72
2023/06/06 06:55:44;;;;;;;4.22;2.33;;;23.90;41.20;;;;;;5046343;28;45332;-72
2023/06/06 06:58:13;;;;;;;3.58;2.60;;;23.90;41.20;;;;;;5046517;28;45410;-72
2023/06/06 07:00:40;;;;;;;3.92;2.50;;;23.90;41.20;;;;;;5046258;28;45471;-73
2023/06/06 07:03:08;;;;;;;2.95;2.60;;;24.00;41.60;;;;;;5046092;28;45356;-72
2023/06/06 07:05:35;;;;;;;3.25;2.70;;;24.00;41.20;;;;;;5046379;28;45461;-72
2023/06/06 07:08:03;;;;;;;2.20;2.10;;;24.00;41.20;;;;;;5046555;28;45526;-73
2023/06/06 07:10:33;;;;;;;3.17;2.53;;;24.00;41.20;;;;;;5046089;28;46320;-72
2023/06/06 07:13:00;;;;;;;2.85;2.47;;;24.00;41.20;;;;;;5046360;28;45359;-72
2023/06/06 07:15:27;;;;;;;3.67;3.00;;;24.00;41.20;;;;;;5046213;28;45384;-72
2023/06/06 07:17:55;;;;;;;2.90;2.60;;;24.10;41.20;;;;;;5046539;28;45320;-72
2023/06/06 07:20:23;;;;;;;4.72;3.10;;;24.10;41.30;;;;;;5045796;28;46334;-72
2023/06/06 07:22:52;;;;;;;3.50;2.70;;;24.10;41.20;;;;;;5046068;28;45469;-73
2023/06/06 07:25:20;;;;;;;2.97;2.67;;;24.10;41.20;;;;;;5046110;28;45320;-72
2023/06/06 07:27:47;;;;;;;2.72;2.50;;;24.10;41.20;;;;;;5046114;28;45326;-72
2023/06/06 07:30:14;;;;;;;2.97;2.47;;;24.10;41.20;;;;;;5044707;28;46455;-72
2023/06/06 07:32:42;;;;;;;3.42;2.55;;;24.10;41.20;;;;;;5045871;28;45406;-73
2023/06/06 07:35:10;;;;;;;3.08;2.42;;;24.20;41.20;;;;;;5046039;28;45213;-73
2023/06/06 07:37:37;;;;;;;3.08;2.40;;;24.20;41.20;;;;;;5046234;28;45427;-72
2023/06/06 07:40:05;;;;;;;5.78;2.58;;;24.10;41.20;;;;;;5045653;28;46934;-73
2023/06/06 07:42:33;;;;;;;3.90;2.70;;;24.20;41.30;;;;;;5045638;28;45352;-72
2023/06/06 07:45:00;;;;;;;2.63;2.42;;;24.20;41.30;;;;;;5045930;28;45313;-73
2023/06/06 07:47:27;;;;;;;3.55;2.40;;;24.20;41.20;;;;;;5045854;28;45410;-73
2023/06/06 07:49:54;;;;;;;3.75;2.47;;;24.20;41.20;;;;;;5045796;28;46735;-73
2023/06/06 07:52:21;;;;;;;3.65;2.40;;;24.20;41.20;;;;;;5045551;28;45356;-73
2023/06/06 07:54:48;;;;;;;2.95;2.65;;;24.20;41.20;;;;;;5045532;28;45353;-73
2023/06/06 07:57:16;;;;;;;2.55;2.33;;;24.30;41.30;;;;;;5045706;28;45186;-73
2023/06/06 07:59:44;;;;;;;3.22;2.60;;;24.30;41.20;;;;;;5045373;28;46273;-72
2023/06/06 08:02:14;;;;;;;3.80;2.30;;;24.30;41.20;;;;;;5045192;28;45403;-73
2023/06/06 08:04:42;;;;;;;2.60;2.40;;;24.30;41.10;;;;;;5045680;28;45237;-73
2023/06/06 08:07:09;;;;;;;2.75;2.50;;;24.40;41.20;;;;;;5045587;28;45381;-72
2023/06/06 08:09:36;;;;;;;3.42;2.45;;;24.40;41.20;;;;;;5045303;28;45414;-73
2023/06/06 08:12:05;;;;;;;2.97;2.67;;;24.40;41.10;;;;;;5045484;28;45370;-73
2023/06/06 08:14:33;;;;;;;3.08;2.50;;;24.40;41.10;;;;;;5045407;28;45350;-73
2023/06/06 08:17:02;;;;;;;3.25;2.72;;;24.40;41.10;;;;;;5045664;28;45313;-72
2023/06/06 08:19:29;;;;;;;3.65;2.90;;;24.40;41.10;;;;;;5045284;28;46717;-73
2023/06/06 08:21:56;;;;;;;3.28;2.97;;;24.50;41.20;;;;;;5045305;28;45328;-73
2023/06/06 08:24:23;;;;;;;3.20;2.65;;;24.50;41.10;;;;;;5045229;28;45265;-73
2023/06/06 08:26:49;;;;;;;3.05;2.78;;;24.50;41.10;;;;;;5045300;28;45411;-73
2023/06/06 08:29:16;;;;;;;3.60;2.80;;;24.50;41.20;;;;;;5045074;28;46594;-73
2023/06/06 08:31:43;;;;;;;2.75;2.55;;;24.50;41.10;;;;;;5045168;28;45447;-73
2023/06/06 08:34:11;;;;;;;2.85;2.65;;;24.50;41.10;;;;;;5045066;28;45408;-72
2023/06/06 08:36:38;;;;;;;3.58;3.10;;;24.60;41.10;;;;;;5045095;28;45462;-73
2023/06/06 08:39:06;;;;;;;3.08;2.78;;;24.60;41.10;;;;;;5044802;28;46752;-73
2023/06/06 08:41:33;;;;;;;2.97;2.70;;;24.60;41.10;;;;;;5047430;28;45377;-73
2023/06/06 08:44:00;;;;;;;3.00;2.67;;;24.70;41.10;;;;;;5048938;28;45359;-73
2023/06/06 08:46:27;;;;;;;3.03;2.33;;;24.70;41.10;;;;;;5048570;28;45556;-73
2023/06/06 08:48:54;;;;;;;3.33;2.85;;;24.70;41.00;;;;;;5048285;28;45219;-72
2023/06/06 08:51:24;;;;;;;2.90;2.60;;;24.70;41.00;;;;;;5048464;28;45374;-73
2023/06/06 08:53:50;;;;;;;3.03;2.72;;;24.70;41.00;;;;;;5048487;28;45319;-73
2023/06/06 08:56:22;;;;;;;3.15;2.60;;;24.80;41.00;;;;;;5048602;28;45322;-73
2023/06/06 08:58:50;;;;;;;3.00;2.65;;;24.80;41.00;;;;;;5048085;28;45388;-73
2023/06/06 09:01:17;;;;;;;3.80;2.90;;;24.80;40.90;;;;;;5049029;28;45177;-73
2023/06/06 09:03:44;;;;;;;2.60;2.40;;;24.80;40.80;;;;;;5048599;28;45222;-73
2023/06/06 09:06:12;;;;;;;3.47;2.90;;;24.80;40.80;;;;;;5048687;28;45387;-73
2023/06/06 09:08:40;;;;;;;2.67;2.45;;;24.90;40.90;;;;;;5048939;28;45458;-73
2023/06/06 09:11:07;;;;;;;2.92;2.70;;;24.90;40.80;;;;;;5048773;28;45321;-73
2023/06/06 09:13:34;;;;;;;3.55;2.78;;;24.90;40.70;;;;;;5049507;28;45289;-73
2023/06/06 09:16:01;;;;;;;2.67;2.47;;;25.00;40.70;;;;;;5048811;28;45503;-73
2023/06/06 09:18:28;;;;;;;3.47;3.13;;;25.00;40.80;;;;;;5048336;28;45401;-73
2023/06/06 09:20:56;;;;;;;3.40;3.10;;;25.00;40.70;;;;;;5048751;28;45335;-73
2023/06/06 09:23:23;;;;;;;3.85;3.08;;;25.00;40.60;;;;;;5048788;28;45416;-73
2023/06/06 09:25:51;;;;;;;3.50;3.20;;;25.10;40.60;;;;;;5048924;28;45427;-72
2023/06/06 09:28:18;;;;;;;3.55;2.97;;;25.10;40.60;;;;;;5048384;28;45423;-73
2023/06/06 09:30:45;;;;;;;3.10;2.90;;;25.10;40.60;;;;;;5048668;28;45421;-72
2023/06/06 09:33:12;;;;;;;3.20;2.83;;;25.10;40.60;;;;;;5048419;28;45335;-72
2023/06/06 09:35:42;;;;;;;2.80;2.53;;;25.10;40.60;;;;;;5046003;28;45444;-72
2023/06/06 09:38:15;;;;;;;3.30;3.00;;;25.20;40.60;;;;;;5048220;28;45284;-72
2023/06/06 09:40:45;;;;;;;3.25;2.78;;;25.30;41.30;;;;;;5048585;28;45382;-72
2023/06/06 09:43:13;;;;;;;2.85;2.65;;;25.30;40.60;;;;;;5048585;28;45628;-72
2023/06/06 09:45:48;;;;;;;3.30;2.78;;;25.30;40.60;;;;;;5048632;28;45409;-72
2023/06/06 09:48:21;;;;;;;3.10;2.85;;;25.30;41.20;;;;;;5048185;28;45512;-72
2023/06/06 09:50:47;;;;;;;4.05;3.03;;;25.40;40.70;;;;;;5048229;28;45269;-72
2023/06/06 09:53:14;;;;;;;3.20;2.90;;;25.40;40.70;;;;;;5047468;28;45332;-72
2023/06/06 09:55:41;;;;;;;2.70;2.50;;;25.40;40.60;;;;;;5048378;28;45555;-72
2023/06/06 09:58:08;;;;;;;2.80;2.60;;;25.40;40.60;;;;;;5047252;28;45455;-72
2023/06/06 10:00:37;;;;;;;3.25;2.70;;;25.40;40.60;;;;;;5048189;28;45308;-72
2023/06/06 10:03:06;;;;;;;3.45;3.10;;;25.50;40.60;;;;;;5047841;28;45185;-72
2023/06/06 10:05:33;;;;;;;3.15;2.75;;;25.50;40.70;;;;;;5048203;28;45379;-72
2023/06/06 10:07:59;;;;;;;2.75;2.55;;;25.50;40.70;;;;;;5047675;28;45375;-72
2023/06/06 10:10:26;;;;;;;3.13;2.83;;;25.60;40.70;;;;;;5047939;28;45198;-72
2023/06/06 10:12:55;;;;;;;3.03;2.67;;;25.60;40.70;;;;;;5047936;28;45329;-73
2023/06/06 10:15:21;;;;;;;3.00;2.70;;;25.60;40.70;;;;;;5048318;28;45448;-73
2023/06/06 10:17:50;;;;;;;3.15;2.85;;;25.60;40.70;;;;;;5047489;28;46737;-72
2023/06/06 10:20:16;;;;;;;3.10;2.80;;;25.70;40.80;;;;;;5047901;28;45253;-73
2023/06/06 10:22:43;;;;;;;2.80;2.60;;;25.70;40.80;;;;;;5047917;28;45317;-72
2023/06/06 10:25:12;;;;;;;2.88;2.67;;;25.70;40.80;;;;;;5048159;28;45463;-73
2023/06/06 10:27:43;;;;;;;3.25;2.47;;;25.80;40.90;;;;;;5047468;28;46668;-73
2023/06/06 10:30:13;;;;;;;3.20;2.60;;;25.80;40.80;;;;;;5047834;28;45143;-73
2023/06/06 10:32:46;;;;;;;3.08;2.80;;;25.80;40.80;;;;;;5047804;28;45323;-72
2023/06/06 10:35:14;;;;;;;3.08;2.75;;;25.90;40.90;;;;;;5047863;28;45278;-72
2023/06/06 10:37:41;;;;;;;2.92;2.72;;;25.90;40.90;;;;;;5047446;28;45359;-72
2023/06/06 10:40:10;;;;;;;3.28;2.78;;;25.90;40.80;;;;;;5047615;28;45305;-73
2023/06/06 10:42:37;;;;;;;2.78;2.58;;;26.00;41.00;;;;;;5047680;28;45384;-73
2023/06/06 10:45:06;;;;;;;2.92;2.70;;;26.00;40.90;;;;;;5048043;28;45292;-73
2023/06/06 10:47:34;;;;;;;3.25;2.95;;;26.00;40.90;;;;;;5046989;28;45531;-72
2023/06/06 10:50:23;;;;;;;3.00;2.80;;;26.10;40.90;;;;;;5046675;28;45398;-72
2023/06/06 10:52:51;;;;;;;2.80;2.60;;;26.10;40.90;;;;;;5047704;28;45407;-72
2023/06/06 10:55:18;;;;;;;3.03;2.80;;;26.10;40.90;;;;;;5046888;28;45338;-71
2023/06/06 10:57:52;;;;;;;3.67;2.80;;;26.20;40.90;;;;;;5046883;28;45253;-72
2023/06/06 11:00:22;;;;;;;3.05;2.70;;;26.20;40.90;;;;;;5047313;28;45204;-72
2023/06/06 11:02:49;;;;;;;2.80;2.60;;;26.30;40.90;;;;;;5046904;28;45451;-72
2023/06/06 11:05:16;;;;;;;3.38;2.85;;;26.30;40.90;;;;;;5047462;28;45376;-72
2023/06/06 11:07:47;;;;;;;3.10;2.80;;;26.40;41.00;;;;;;5046924;28;45181;-72
2023/06/06 11:10:14;;;;;;;3.08;2.80;;;26.40;40.90;;;;;;5046912;28;45390;-73
2023/06/06 11:12:40;;;;;;;2.40;2.20;;;26.50;41.00;;;;;;5047176;28;45378;-73
2023/06/06 11:15:08;;;;;;;2.75;2.55;;;26.50;41.00;;;;;;5047299;28;45317;-72
2023/06/06 11:17:43;;;;;;;2.72;2.53;;;26.50;40.90;;;;;;5046912;28;46599;-74
2023/06/06 11:20:17;;;;;;;4.03;2.90;;;26.50;40.80;;;;;;5047181;28;45479;-73
2023/06/06 11:22:53;;;;;;;3.65;2.45;;;26.60;40.80;;;;;;5047028;28;45262;-73
2023/06/06 11:25:23;;;;;;;3.05;2.75;;;26.60;40.70;;;;;;5047175;28;45325;-73
2023/06/06 11:27:50;;;;;;;2.63;2.42;;;26.70;40.70;;;;;;5046610;28;45408;-73
2023/06/06 11:30:17;;;;;;;3.03;2.63;;;26.80;40.70;;;;;;5046883;28;45133;-73
2023/06/06 11:32:46;;;;;;;3.10;2.80;;;26.80;40.60;;;;;;5046746;28;45333;-73
2023/06/06 11:35:16;;;;;;;3.40;2.78;;;26.90;40.60;;;;;;5046929;28;45400;-73
2023/06/06 11:37:43;;;;;;;2.70;2.50;;;26.90;40.60;;;;;;5046548;28;45337;-73
2023/06/06 11:40:12;;;;;;;2.47;2.28;;;27.00;40.60;;;;;;5046736;28;45276;-74
2023/06/06 11:42:42;;;;;;;3.00;2.70;;;27.00;40.70;;;;;;5046939;28;45301;-73
2023/06/06 11:45:13;;;;;;;2.80;2.60;;;27.00;40.70;;;;;;5046883;28;45106;-73
2023/06/06 11:47:40;;;;;;;2.90;2.70;;;27.00;40.60;;;;;;5046405;28;46669;-73
2023/06/06 11:50:08;;;;;;;3.45;2.58;;;27.00;40.60;;;;;;5046760;28;45328;-73
2023/06/06 11:52:43;;;;;;;2.63;2.40;;;27.00;40.60;;;;;;5046529;28;45278;-73
2023/06/06 11:55:12;;;;;;;2.50;2.30;;;27.00;40.60;;;;;;5047314;28;45443;-73
2023/06/06 11:57:39;;;;;;;3.00;2.70;;;27.00;40.60;;;;;;5048399;28;46367;-73
2023/06/06 12:00:10;;;;;;;3.72;2.60;;;27.00;40.60;;;;;;5046050;28;45417;-72
2023/06/06 12:02:37;;;;;;;2.75;2.55;;;27.10;40.50;;;;;;5046292;28;45423;-73
2023/06/06 12:05:05;;;;;;;3.22;2.92;;;27.10;40.50;;;;;;5046662;28;45412;-73
2023/06/06 12:07:32;;;;;;;2.97;2.45;;;27.20;40.30;;;;;;5046306;28;46493;-74
2023/06/06 12:09:59;;;;;;;2.60;2.40;;;27.30;40.20;;;;;;5046117;28;45390;-73
2023/06/06 12:12:27;;;;;;;2.75;2.55;;;27.30;40.10;;;;;;5046583;28;45262;-73
2023/06/06 12:14:57;;;;;;;2.72;2.53;;;27.40;40.00;;;;;;5047417;28;45327;-73
2023/06/06 12:17:25;;;;;;;2.88;2.67;;;27.50;40.00;;;;;;5050080;28;45788;-73
2023/06/06 12:19:53;;;;;;;3.05;2.67;;;27.50;39.90;;;;;;5046621;28;45320;-74
2023/06/06 12:22:28;;;;;;;2.83;2.58;;;27.60;39.90;;;;;;5047310;28;45368;-74
2023/06/06 12:24:55;;;;;;;2.90;2.40;;;27.60;39.80;;;;;;5047208;28;45579;-73
2023/06/06 12:27:27;;;;;;;2.40;2.20;;;27.70;40.30;;;;;;5046815;28;45316;-73
2023/06/06 12:29:55;;;;;;;2.50;2.30;;;27.80;39.60;;;;;;5046057;28;45379;-73
2023/06/06 12:32:25;;;;;;;2.75;2.55;;;27.80;39.70;;;;;;5046023;28;45316;-73
2023/06/06 12:34:53;;;;;;;2.60;2.40;;;27.90;39.50;;;;;;5046322;28;45200;-74
2023/06/06 12:37:24;;;;;;;2.88;2.63;;;27.90;39.50;;;;;;5045568;28;45304;-74
2023/06/06 12:39:51;;;;;;;2.90;2.65;;;27.80;39.40;;;;;;5045649;28;45328;-74
2023/06/06 12:42:19;;;;;;;3.15;2.95;;;27.90;39.40;;;;;;5046034;28;45497;-73
2023/06/06 12:44:47;;;;;;;3.00;2.70;;;28.00;39.30;;;;;;5046018;28;45374;-74
2023/06/06 12:47:14;;;;;;;2.42;2.22;;;28.10;39.10;;;;;;5045794;28;45306;-74
2023/06/06 12:49:41;;;;;;;2.60;2.40;;;28.10;39.10;;;;;;5045741;28;45390;-73
2023/06/06 12:52:09;;;;;;;4.38;2.63;;;28.20;39.10;;;;;;5045542;28;45336;-74